Concord, Vermont
Current Conditions -  °F | °C
As of 2:15 PM on Sunday 23 Nov 2014 (Local Time) from KCDA Reporting Station
Overcast Overcast  
Wind Chill: 41°   Ceiling: 2400
Heat Index: 41°   Visibility: 7mi
Dew Point: 37°   Wind: 0mph
Humidity: 88%   Direction: NA
Pressure: 30.07"   Gusts: NA
Location:  44.43°N, 71.89°W
Report Text: KCDA 231915Z AUTO 00000KT 7SM BKN024 OVC049 05/03 A3007 RMK AO2 T00480030
Loading
Personal Weather Stations






























Interactive Weather Map New forecast layout! Learn more

10-Day Weather Forecast

Advertisements
Track Severe Weather on mobile